Time;durP1;ratioP1;P1;durP2;ratioP2;P2;SDS_P1;SDS_P2;PMS_P1;PMS_P2;Temp;Humidity;BMP_temperature;BMP_pressure;BME280_temperature;BME280_humidity;BME280_pressure;Samples;Min_cycle;Max_cycle;Signal;HPM_P1;HPM_P2
2022/11/29 00:01:16;;;;;;;1999.90;999.90;;;7.80;99.90;;;;;;5050672;28;20467;-65
2022/11/29 00:03:43;;;;;;;1999.90;999.90;;;7.80;99.90;;;;;;5050585;28;20484;-66
2022/11/29 00:06:13;;;;;;;1999.90;999.90;;;7.90;99.90;;;;;;5050697;28;20444;-65
2022/11/29 00:08:41;;;;;;;1999.90;999.90;;;7.90;99.90;;;;;;5050262;28;21005;-65
2022/11/29 00:11:09;;;;;;;1999.90;999.90;;;7.90;99.90;;;;;;5050332;28;20478;-66
2022/11/29 00:13:36;;;;;;;1999.90;999.90;;;7.90;99.90;;;;;;5050738;28;20448;-66
2022/11/29 00:16:06;;;;;;;1999.90;999.90;;;7.80;99.90;;;;;;5050238;28;20447;-65
2022/11/29 00:18:33;;;;;;;1999.90;999.90;;;7.90;99.90;;;;;;5050193;28;20444;-66
2022/11/29 00:21:00;;;;;;;1999.90;999.90;;;7.90;99.90;;;;;;5050049;28;20472;-66
2022/11/29 00:23:27;;;;;;;1999.90;999.90;;;7.80;99.90;;;;;;5050433;28;20483;-66
2022/11/29 00:25:54;;;;;;;1999.90;999.90;;;7.80;99.90;;;;;;5050150;28;20452;-66
2022/11/29 00:28:20;;;;;;;1999.90;999.90;;;7.90;99.90;;;;;;5050044;28;20451;-66
2022/11/29 00:30:47;;;;;;;1999.90;999.90;;;7.80;99.90;;;;;;5050005;28;20483;-65
2022/11/29 00:33:15;;;;;;;1999.90;999.90;;;7.80;99.90;;;;;;5050142;28;20946;-65
2022/11/29 00:35:42;;;;;;;1999.90;999.90;;;7.80;99.90;;;;;;5049795;28;20474;-65
2022/11/29 00:38:09;;;;;;;1999.90;999.90;;;7.80;99.90;;;;;;5050031;28;20444;-65
2022/11/29 00:40:35;;;;;;;1999.90;999.90;;;7.90;99.90;;;;;;5049723;28;20468;-65
2022/11/29 00:43:03;;;;;;;1999.90;999.90;;;7.90;99.90;;;;;;5049535;28;20515;-65
2022/11/29 00:45:30;;;;;;;1999.90;999.90;;;7.90;99.90;;;;;;5050159;28;20444;-65
2022/11/29 00:47:57;;;;;;;1999.90;999.90;;;7.90;99.90;;;;;;5049710;28;20440;-65
2022/11/29 00:50:25;;;;;;;1999.90;999.90;;;7.90;99.90;;;;;;5049492;28;20468;-65
2022/11/29 00:52:52;;;;;;;1999.90;999.90;;;7.90;99.90;;;;;;5049783;28;20504;-65
2022/11/29 00:55:19;;;;;;;1999.90;999.90;;;7.90;99.90;;;;;;5049706;28;20969;-65
2022/11/29 00:57:45;;;;;;;1999.90;999.90;;;7.90;99.90;;;;;;5049503;28;20456;-65
2022/11/29 01:00:13;;;;;;;1999.90;999.90;;;7.90;99.90;;;;;;5049380;28;20467;-64
2022/11/29 01:02:40;;;;;;;1999.90;999.90;;;7.90;99.90;;;;;;5049532;28;20480;-65
2022/11/29 01:05:07;;;;;;;1999.90;999.90;;;7.90;99.90;;;;;;5049613;28;20511;-64
2022/11/29 01:07:35;;;;;;;1999.90;999.90;;;7.80;99.90;;;;;;5049687;28;20447;-65
2022/11/29 01:10:02;;;;;;;1999.90;999.90;;;7.80;99.90;;;;;;5048859;28;21016;-65
2022/11/29 01:12:29;;;;;;;1999.90;999.90;;;7.90;99.90;;;;;;5049622;28;20444;-65
2022/11/29 01:14:55;;;;;;;1999.90;999.90;;;7.90;99.90;;;;;;5048457;28;20452;-65
2022/11/29 01:17:22;;;;;;;1999.90;999.90;;;7.90;99.90;;;;;;5049476;28;20455;-65
2022/11/29 01:19:49;;;;;;;1999.90;999.90;;;7.80;99.90;;;;;;5049093;28;20475;-65
2022/11/29 01:22:16;;;;;;;1999.90;999.90;;;7.90;99.90;;;;;;5049537;28;20527;-64
2022/11/29 01:24:44;;;;;;;1999.90;999.90;;;7.90;99.90;;;;;;5049383;28;20454;-64
2022/11/29 01:27:10;;;;;;;1999.90;999.90;;;7.80;99.90;;;;;;5049652;28;20459;-67
2022/11/29 01:29:38;;;;;;;1999.90;999.90;;;7.70;99.90;;;;;;5049097;28;20534;-67
2022/11/29 01:32:05;;;;;;;1999.90;999.90;;;7.70;99.90;;;;;;5049503;28;20543;-66
2022/11/29 01:34:31;;;;;;;1999.90;999.90;;;7.70;99.90;;;;;;5049664;28;20447;-67
2022/11/29 01:36:58;;;;;;;1999.90;999.90;;;7.70;99.90;;;;;;5049491;28;20444;-66
2022/11/29 01:39:25;;;;;;;1999.90;999.90;;;7.80;99.90;;;;;;5049054;28;20820;-64
2022/11/29 01:41:53;;;;;;;1999.90;999.90;;;7.80;99.90;;;;;;5049087;28;20820;-67
2022/11/29 01:45:06;;;;;;;1999.90;999.90;;;7.80;99.90;;;;;;5049189;28;20504;-66
2022/11/29 01:47:35;;;;;;;1999.90;999.90;;;7.80;99.90;;;;;;5049140;28;20440;-67
2022/11/29 01:50:03;;;;;;;1999.90;999.90;;;7.90;99.90;;;;;;5048994;28;20465;-67
2022/11/29 01:52:32;;;;;;;1999.90;999.90;;;7.90;99.90;;;;;;5048859;28;20440;-67
2022/11/29 01:55:03;;;;;;;1999.90;999.90;;;7.90;99.90;;;;;;5049344;28;21132;-67
2022/11/29 01:57:34;;;;;;;1999.90;999.90;;;7.90;99.90;;;;;;5049374;28;20439;-67
2022/11/29 02:00:07;;;;;;;1999.90;999.90;;;7.90;99.90;;;;;;5048978;28;20470;-67
2022/11/29 02:02:36;;;;;;;1999.90;999.90;;;8.00;99.90;;;;;;5049202;28;20535;-67
2022/11/29 02:05:04;;;;;;;1999.90;999.90;;;8.00;99.90;;;;;;5049361;28;20448;-67
2022/11/29 02:07:31;;;;;;;1999.90;999.90;;;8.00;99.90;;;;;;5047081;28;20835;-67
2022/11/29 02:09:58;;;;;;;1999.90;999.90;;;8.00;99.90;;;;;;5038469;28;20468;-67
2022/11/29 02:12:32;;;;;;;1999.90;999.90;;;8.00;99.90;;;;;;5028999;28;20445;-67
2022/11/29 02:15:09;;;;;;;1999.90;999.90;;;8.00;99.90;;;;;;5028160;28;20448;-65
2022/11/29 02:17:48;;;;;;;1999.90;999.90;;;7.90;99.90;;;;;;5029384;28;20445;-67
2022/11/29 02:20:36;;;;;;;1999.90;999.90;;;8.00;99.90;;;;;;5028584;28;20468;-67
2022/11/29 02:23:15;;;;;;;1999.90;999.90;;;8.00;99.90;;;;;;5029283;28;20476;-67
2022/11/29 02:25:57;;;;;;;1999.90;999.90;;;8.00;99.90;;;;;;5031363;28;20463;-67
2022/11/29 02:29:02;;;;;;;1999.90;999.90;;;8.00;99.90;;;;;;5032712;28;20978;-67
2022/11/29 02:32:17;;;;;;;1999.90;999.90;;;8.00;99.90;;;;;;5017298;28;20846;-66
2022/11/29 02:34:53;;;;;;;1999.90;999.90;;;8.00;99.90;;;;;;5032521;28;20472;-67
2022/11/29 02:37:39;;;;;;;1999.90;999.90;;;8.10;99.90;;;;;;5032611;28;20444;-66
2022/11/29 02:40:19;;;;;;;1999.90;999.90;;;8.10;99.90;;;;;;5031829;28;20468;-67
2022/11/29 02:43:24;;;;;;;1999.90;999.90;;;8.00;99.90;;;;;;5032286;28;20449;-66
2022/11/29 02:46:09;;;;;;;1999.90;999.90;;;8.10;99.90;;;;;;5032335;28;20444;-67
2022/11/29 02:48:55;;;;;;;1999.90;999.90;;;8.10;99.90;;;;;;5032166;28;20594;-67
2022/11/29 02:51:28;;;;;;;1999.90;999.90;;;8.10;99.90;;;;;;5031840;28;20469;-67
2022/11/29 02:54:01;;;;;;;1999.90;999.90;;;8.10;99.90;;;;;;5032388;28;20460;-67
2022/11/29 02:56:37;;;;;;;1999.90;999.90;;;8.10;99.90;;;;;;5032063;28;20487;-67
2022/11/29 02:59:08;;;;;;;1999.90;999.90;;;8.10;99.90;;;;;;5031739;28;20463;-67
2022/11/29 03:01:45;;;;;;;1999.90;999.90;;;8.10;99.90;;;;;;5031642;28;20997;-67
2022/11/29 03:04:21;;;;;;;1999.90;999.90;;;8.10;99.90;;;;;;5031858;28;20488;-67
2022/11/29 03:06:55;;;;;;;1999.90;999.90;;;8.10;99.90;;;;;;5031868;28;20835;-67
2022/11/29 03:09:32;;;;;;;1999.90;999.90;;;8.10;99.90;;;;;;5031511;28;20454;-65
2022/11/29 03:12:07;;;;;;;1999.90;999.90;;;8.10;99.90;;;;;;5031787;28;20451;-66
2022/11/29 03:14:48;;;;;;;1999.90;999.90;;;8.20;99.90;;;;;;5031851;28;20445;-67
2022/11/29 03:17:25;;;;;;;1999.90;999.90;;;8.20;99.90;;;;;;5031903;28;20552;-66
2022/11/29 03:20:07;;;;;;;1999.90;999.90;;;8.20;99.90;;;;;;5031284;28;20471;-67
2022/11/29 03:22:43;;;;;;;1999.90;999.90;;;8.20;99.90;;;;;;5031611;28;20445;-67
2022/11/29 03:25:18;;;;;;;1999.90;999.90;;;8.20;99.90;;;;;;5031461;28;20436;-67
2022/11/29 03:27:50;;;;;;;1999.90;999.90;;;8.10;99.90;;;;;;5031495;28;20440;-66
2022/11/29 03:30:18;;;;;;;1999.90;999.90;;;8.20;99.90;;;;;;5030970;28;20468;-67
2022/11/29 03:32:54;;;;;;;1999.90;999.90;;;8.20;99.90;;;;;;5031141;28;20820;-67
2022/11/29 03:35:30;;;;;;;1999.90;999.90;;;8.20;99.90;;;;;;5031225;28;20458;-67
2022/11/29 03:38:05;;;;;;;1999.90;999.90;;;8.20;99.90;;;;;;5030705;28;20444;-67
2022/11/29 03:40:40;;;;;;;1999.90;999.90;;;8.20;99.90;;;;;;5030884;28;20909;-67
2022/11/29 03:43:10;;;;;;;1999.90;999.90;;;8.10;99.90;;;;;;5031170;28;20480;-67
2022/11/29 03:45:45;;;;;;;1999.90;999.90;;;8.10;99.90;;;;;;5031048;28;20460;-67
2022/11/29 03:48:16;;;;;;;1999.90;999.90;;;8.20;99.90;;;;;;5031237;28;20444;-67
2022/11/29 03:50:50;;;;;;;1999.90;999.90;;;8.20;99.90;;;;;;5030747;28;20823;-67
2022/11/29 03:53:23;;;;;;;1999.90;999.90;;;8.20;99.90;;;;;;5031329;28;20540;-67
2022/11/29 03:55:54;;;;;;;1999.90;999.90;;;8.20;99.90;;;;;;5031094;28;20433;-67
2022/11/29 03:58:44;;;;;;;1999.90;999.90;;;8.20;99.90;;;;;;5030937;28;20441;-67
2022/11/29 04:01:55;;;;;;;1999.90;999.90;;;8.20;99.90;;;;;;5030730;28;20469;-67
2022/11/29 04:04:49;;;;;;;1999.90;999.90;;;8.20;99.90;;;;;;5030944;28;20484;-67
2022/11/29 04:07:49;;;;;;;1999.90;999.90;;;8.20;99.90;;;;;;5030543;28;20931;-67
2022/11/29 04:10:33;;;;;;;1999.90;999.90;;;8.20;99.90;;;;;;5030323;28;20987;-67
2022/11/29 04:13:30;;;;;;;1999.90;999.90;;;8.20;99.90;;;;;;5030697;28;20451;-66
2022/11/29 04:16:35;;;;;;;1999.90;999.90;;;8.20;99.90;;;;;;5028312;28;21150;-67
2022/11/29 04:19:37;;;;;;;1999.90;999.90;;;8.20;99.90;;;;;;4991683;28;20456;-67
2022/11/29 04:22:34;;;;;;;1999.90;999.90;;;8.20;99.90;;;;;;5030410;28;20463;-67
2022/11/29 04:25:31;;;;;;;1999.90;999.90;;;8.20;99.90;;;;;;5004916;28;20491;-67
2022/11/29 04:28:20;;;;;;;1999.90;999.90;;;8.20;99.90;;;;;;5030117;28;20445;-67
2022/11/29 04:30:55;;;;;;;1999.90;999.90;;;8.20;99.90;;;;;;5030439;28;20465;-67
2022/11/29 04:33:48;;;;;;;1999.90;999.90;;;8.10;99.90;;;;;;5030451;28;20448;-67
2022/11/29 04:36:44;;;;;;;1999.90;999.90;;;8.20;99.90;;;;;;5030281;28;20981;-67
2022/11/29 04:39:42;;;;;;;1999.90;999.90;;;8.20;99.90;;;;;;5029936;28;20824;-67
2022/11/29 04:42:44;;;;;;;1999.90;999.90;;;8.20;99.90;;;;;;5030668;28;20457;-67
2022/11/29 04:45:49;;;;;;;1999.90;999.90;;;8.20;99.90;;;;;;5014897;28;20495;-67
2022/11/29 04:48:47;;;;;;;1999.90;999.90;;;8.20;99.90;;;;;;5008598;28;20460;-67
2022/11/29 04:51:22;;;;;;;1999.90;999.90;;;8.20;99.90;;;;;;5030216;28;20583;-67
2022/11/29 04:53:56;;;;;;;1999.90;999.90;;;8.20;99.90;;;;;;5030245;28;20448;-67
2022/11/29 04:56:34;;;;;;;1999.90;999.90;;;8.30;99.90;;;;;;5030235;28;20437;-67
2022/11/29 04:59:09;;;;;;;1999.90;999.90;;;8.30;99.90;;;;;;5029885;28;20460;-67
2022/11/29 05:01:48;;;;;;;1999.90;999.90;;;8.20;99.90;;;;;;5029776;28;20460;-67
2022/11/29 05:04:21;;;;;;;1999.90;999.90;;;8.20;99.90;;;;;;5029527;28;20480;-67
2022/11/29 05:06:58;;;;;;;1999.90;999.90;;;8.20;99.90;;;;;;5030053;28;20445;-67
2022/11/29 05:09:32;;;;;;;1999.90;999.90;;;8.30;99.90;;;;;;5029479;28;20456;-66
2022/11/29 05:12:13;;;;;;;1999.90;999.90;;;8.30;99.90;;;;;;5029534;28;20448;-67
2022/11/29 05:14:54;;;;;;;1999.90;999.90;;;8.30;99.90;;;;;;5029718;28;20440;-67
2022/11/29 05:17:42;;;;;;;1999.90;999.90;;;8.30;99.90;;;;;;5029781;28;20523;-67
2022/11/29 05:20:21;;;;;;;1999.90;999.90;;;8.30;99.90;;;;;;5029350;28;20522;-67
2022/11/29 05:23:00;;;;;;;1999.90;999.90;;;8.30;99.90;;;;;;5029417;28;20954;-67
2022/11/29 05:25:37;;;;;;;1999.90;999.90;;;8.30;99.90;;;;;;5029576;28;21350;-67
2022/11/29 05:28:12;;;;;;;1999.90;999.90;;;8.30;99.90;;;;;;5029298;28;20827;-67
2022/11/29 05:31:01;;;;;;;1999.90;999.90;;;8.20;99.90;;;;;;5029524;28;20468;-67
2022/11/29 05:33:42;;;;;;;1999.90;999.90;;;8.20;99.90;;;;;;5029298;28;20441;-67
2022/11/29 05:36:20;;;;;;;1999.90;999.90;;;8.20;99.90;;;;;;5029753;28;20463;-68
2022/11/29 05:39:01;;;;;;;1999.90;999.90;;;8.10;99.90;;;;;;5029151;28;20453;-67
2022/11/29 05:41:48;;;;;;;1999.90;999.90;;;8.20;99.90;;;;;;5029441;28;20460;-67
2022/11/29 05:44:21;;;;;;;1999.90;999.90;;;8.10;99.90;;;;;;5029408;28;20863;-67
2022/11/29 05:46:54;;;;;;;1999.90;999.90;;;8.10;99.90;;;;;;5029592;28;20452;-67
2022/11/29 05:49:30;;;;;;;1999.90;999.90;;;8.20;99.90;;;;;;5040298;28;20974;-66
2022/11/29 05:52:15;;;;;;;1999.90;999.90;;;8.20;99.90;;;;;;5047703;28;20454;-67
2022/11/29 05:54:51;;;;;;;1999.90;999.90;;;8.30;99.90;;;;;;5049234;28;20440;-66
2022/11/29 05:57:27;;;;;;;1999.90;999.90;;;8.30;99.90;;;;;;5049356;28;21090;-67
2022/11/29 05:59:57;;;;;;;1999.90;999.90;;;8.30;99.90;;;;;;5049664;28;20489;-66
2022/11/29 06:02:36;;;;;;;1999.90;999.90;;;8.30;99.90;;;;;;5052549;28;20487;-67
2022/11/29 06:05:12;;;;;;;1999.90;999.90;;;8.30;99.90;;;;;;5052114;28;20483;-67
2022/11/29 06:07:44;;;;;;;1999.90;999.90;;;8.30;99.90;;;;;;5049673;28;20471;-65
2022/11/29 06:10:16;;;;;;;1999.90;999.90;;;8.30;99.90;;;;;;5052146;28;20539;-67
2022/11/29 06:12:49;;;;;;;1999.90;999.90;;;8.30;99.90;;;;;;5052879;28;20448;-66
2022/11/29 06:15:36;;;;;;;1999.90;999.90;;;8.30;99.90;;;;;;5057926;28;20454;-67
2022/11/29 06:18:17;;;;;;;1999.90;999.90;;;8.40;99.90;;;;;;5051416;28;20436;-67
2022/11/29 06:21:04;;;;;;;1999.90;999.90;;;8.30;99.90;;;;;;5051298;28;21059;-67
2022/11/29 06:23:52;;;;;;;1999.90;999.90;;;8.30;99.90;;;;;;5051137;28;20445;-67
2022/11/29 06:26:35;;;;;;;1999.90;999.90;;;8.30;99.90;;;;;;5051513;28;20547;-67
2022/11/29 06:29:18;;;;;;;1999.90;999.90;;;8.30;99.90;;;;;;5050541;28;20440;-67
2022/11/29 06:31:52;;;;;;;1999.90;999.90;;;8.30;99.90;;;;;;5051649;28;20463;-65
2022/11/29 06:34:25;;;;;;;1999.90;999.90;;;8.30;99.90;;;;;;5052163;28;20444;-65
2022/11/29 06:36:54;;;;;;;1999.90;999.90;;;8.20;99.90;;;;;;5052766;28;20455;-65
2022/11/29 06:39:22;;;;;;;1999.90;999.90;;;8.20;99.90;;;;;;5050027;28;20839;-67
2022/11/29 06:41:49;;;;;;;1999.90;999.90;;;8.30;99.90;;;;;;5052128;28;20994;-65
2022/11/29 06:44:16;;;;;;;1999.90;999.90;;;8.30;99.90;;;;;;5046125;28;20476;-65
2022/11/29 06:46:48;;;;;;;1999.90;999.90;;;8.20;99.90;;;;;;5051938;28;20445;-65
2022/11/29 06:49:22;;;;;;;1999.90;999.90;;;8.20;99.90;;;;;;5051521;28;20513;-67
2022/11/29 06:52:02;;;;;;;1999.90;999.90;;;8.20;99.90;;;;;;5052307;28;20816;-65
2022/11/29 06:54:41;;;;;;;1999.90;999.90;;;8.20;99.90;;;;;;5052030;28;20535;-65
2022/11/29 06:57:16;;;;;;;1999.90;999.90;;;8.20;99.90;;;;;;5052198;28;20451;-65
2022/11/29 06:59:59;;;;;;;1999.90;999.90;;;8.20;99.90;;;;;;5051390;28;20459;-65
2022/11/29 07:02:49;;;;;;;1999.90;999.90;;;8.20;99.90;;;;;;5051760;28;20938;-65
2022/11/29 07:05:23;;;;;;;1999.90;999.90;;;8.20;99.90;;;;;;5051768;28;20487;-67
2022/11/29 07:07:51;;;;;;;1999.90;999.90;;;8.10;99.90;;;;;;5051945;28;20451;-65
2022/11/29 07:10:20;;;;;;;1999.90;999.90;;;8.10;99.90;;;;;;5051542;28;20545;-65
2022/11/29 07:12:49;;;;;;;1999.90;999.90;;;8.10;99.90;;;;;;5050875;28;20450;-66
2022/11/29 07:15:18;;;;;;;1999.90;999.90;;;8.10;99.90;;;;;;5051692;28;20441;-65
2022/11/29 07:17:58;;;;;;;1999.90;999.90;;;8.20;99.90;;;;;;5051490;28;20847;-66
2022/11/29 07:20:36;;;;;;;1999.90;999.90;;;8.20;99.90;;;;;;5051331;28;20467;-65
2022/11/29 07:23:11;;;;;;;1999.90;999.90;;;8.10;99.90;;;;;;5051580;28;20445;-65
2022/11/29 07:25:48;;;;;;;1999.90;999.90;;;8.10;99.90;;;;;;5051488;28;20494;-65
2022/11/29 07:28:27;;;;;;;1999.90;999.90;;;8.00;99.90;;;;;;5051711;28;20519;-65
2022/11/29 07:31:02;;;;;;;1999.90;999.90;;;8.00;99.90;;;;;;5051606;28;20476;-65
2022/11/29 07:33:40;;;;;;;1999.90;999.90;;;8.10;99.90;;;;;;5051882;28;20965;-65
2022/11/29 07:36:14;;;;;;;1999.90;999.90;;;8.10;99.90;;;;;;5051675;28;20490;-65
2022/11/29 07:38:55;;;;;;;1999.90;999.90;;;8.10;99.90;;;;;;5051399;28;20942;-65
2022/11/29 07:41:29;;;;;;;1999.90;999.90;;;8.00;99.90;;;;;;5051478;28;20467;-66
2022/11/29 07:44:04;;;;;;;1999.90;999.90;;;8.00;99.90;;;;;;5051412;28;20449;-65
2022/11/29 07:46:30;;;;;;;1999.90;999.90;;;8.10;99.90;;;;;;5051262;28;20451;-65
2022/11/29 07:48:58;;;;;;;1999.90;999.90;;;8.00;99.90;;;;;;5050994;28;20453;-65
2022/11/29 07:51:25;;;;;;;1999.90;999.90;;;8.10;99.90;;;;;;5051205;28;20474;-66
2022/11/29 07:53:52;;;;;;;1999.90;999.90;;;8.10;99.90;;;;;;5051407;28;20843;-65
2022/11/29 07:56:19;;;;;;;1999.90;999.90;;;8.10;99.90;;;;;;5051106;28;20511;-65
2022/11/29 07:58:46;;;;;;;1999.90;999.90;;;8.20;99.90;;;;;;5050602;28;20941;-65
2022/11/29 08:01:13;;;;;;;1999.90;999.90;;;8.30;99.90;;;;;;5050570;28;20475;-65
2022/11/29 08:03:41;;;;;;;1999.90;999.90;;;8.40;99.90;;;;;;5050619;28;20448;-65
2022/11/29 08:06:09;;;;;;;1999.90;999.90;;;8.40;99.90;;;;;;5050511;28;20486;-65
2022/11/29 08:08:36;;;;;;;1999.90;999.90;;;8.30;99.90;;;;;;5050378;28;20455;-65
2022/11/29 08:11:09;;;;;;;1999.90;999.90;;;8.20;99.90;;;;;;5050767;28;20468;-65
2022/11/29 08:13:36;;;;;;;1999.90;999.90;;;8.30;99.90;;;;;;5050715;28;20807;-65
2022/11/29 08:16:03;;;;;;;1999.90;999.90;;;8.40;99.90;;;;;;5050526;28;20443;-65
2022/11/29 08:18:29;;;;;;;1999.90;999.90;;;8.40;99.90;;;;;;5050344;28;20455;-65
2022/11/29 08:20:56;;;;;;;1999.90;999.90;;;8.30;99.90;;;;;;5050422;28;20468;-66
2022/11/29 08:23:24;;;;;;;1999.90;999.90;;;8.30;99.90;;;;;;5050185;28;20444;-65
2022/11/29 08:25:58;;;;;;;1999.90;999.90;;;8.30;99.90;;;;;;5050489;28;20938;-65
2022/11/29 08:28:24;;;;;;;1999.90;999.90;;;8.40;99.90;;;;;;5049820;28;20444;-65
2022/11/29 08:30:59;;;;;;;1999.90;999.90;;;8.40;99.90;;;;;;5050518;28;20467;-65
2022/11/29 08:33:26;;;;;;;1999.90;999.90;;;8.40;99.90;;;;;;5050232;28;20439;-65
2022/11/29 08:35:52;;;;;;;1999.90;999.90;;;8.40;99.90;;;;;;5050230;28;20458;-65
2022/11/29 08:38:19;;;;;;;1999.90;999.90;;;8.50;99.90;;;;;;5049964;28;20452;-65
2022/11/29 08:40:47;;;;;;;1999.90;999.90;;;8.50;99.90;;;;;;5050214;28;20464;-65
2022/11/29 08:43:14;;;;;;;1999.90;999.90;;;8.50;99.90;;;;;;5049788;28;20637;-65
2022/11/29 08:45:41;;;;;;;1999.90;999.90;;;8.50;99.90;;;;;;5049895;28;21173;-65
2022/11/29 08:48:07;;;;;;;1999.90;999.90;;;8.50;99.90;;;;;;5049717;28;20454;-65
2022/11/29 08:50:34;;;;;;;1999.90;999.90;;;8.50;99.90;;;;;;5049720;28;20474;-64
2022/11/29 08:55:46;;;;;;;1999.90;999.90;;;8.40;99.90;;;;;;5050046;28;20439;-65
2022/11/29 08:58:15;;;;;;;1999.90;999.90;;;8.40;99.90;;;;;;5049576;28;20960;-64
2022/11/29 09:00:44;;;;;;;1999.90;999.90;;;8.50;99.90;;;;;;5049714;28;20554;-64
2022/11/29 09:05:56;;;;;;;1999.90;999.90;;;8.50;99.90;;;;;;5049776;28;20526;-65
2022/11/29 09:08:23;;;;;;;1999.90;999.90;;;8.60;99.90;;;;;;5049944;28;20452;-65
2022/11/29 09:10:52;;;;;;;1999.90;999.90;;;8.60;99.90;;;;;;5049197;28;20468;-65
2022/11/29 09:13:18;;;;;;;1999.90;999.90;;;8.60;99.90;;;;;;5049871;28;20518;-64
2022/11/29 09:15:45;;;;;;;1999.90;999.90;;;8.60;99.90;;;;;;5049645;28;20451;-65
2022/11/29 09:18:12;;;;;;;1999.90;999.90;;;8.60;99.90;;;;;;5049738;28;20444;-64
2022/11/29 09:20:42;;;;;;;1999.90;999.90;;;8.60;99.90;;;;;;5049258;28;20467;-64
2022/11/29 09:23:09;;;;;;;1999.90;999.90;;;8.50;99.90;;;;;;5049874;28;20835;-64
2022/11/29 09:25:36;;;;;;;1999.90;999.90;;;8.50;99.90;;;;;;5049770;28;20484;-64
2022/11/29 09:28:04;;;;;;;1999.90;999.90;;;8.50;99.90;;;;;;5049648;28;20451;-65
2022/11/29 09:30:33;;;;;;;1999.90;999.90;;;8.50;99.90;;;;;;5049390;28;20471;-65
2022/11/29 09:33:03;;;;;;;1999.90;999.90;;;8.50;99.90;;;;;;5049350;28;20459;-65
2022/11/29 09:35:30;;;;;;;1999.90;999.90;;;8.40;99.90;;;;;;5051454;28;20456;-64
2022/11/29 09:37:57;;;;;;;1999.90;999.90;;;8.40;99.90;;;;;;5053477;28;20450;-64
2022/11/29 09:40:32;;;;;;;1999.90;999.90;;;8.40;99.90;;;;;;5053273;28;20460;-65
2022/11/29 09:43:04;;;;;;;1999.90;999.90;;;8.40;99.90;;;;;;5051544;28;20508;-64
2022/11/29 09:45:37;;;;;;;1999.90;999.90;;;8.40;99.90;;;;;;5053326;28;20472;-65
2022/11/29 09:48:36;;;;;;;1999.90;999.90;;;8.40;99.90;;;;;;5053367;28;20451;-65
2022/11/29 09:51:10;;;;;;;1999.90;999.90;;;8.30;99.90;;;;;;5049491;28;20474;-65
2022/11/29 09:53:51;;;;;;;1999.90;999.90;;;8.30;99.90;;;;;;5049973;28;20529;-65
2022/11/29 09:56:26;;;;;;;1999.90;999.90;;;8.30;99.90;;;;;;5053449;28;20436;-65
2022/11/29 09:58:57;;;;;;;1999.90;999.90;;;8.30;99.90;;;;;;5052998;28;20435;-65
2022/11/29 10:01:28;;;;;;;1999.90;999.90;;;8.30;99.90;;;;;;5053334;28;20466;-65
2022/11/29 10:04:00;;;;;;;1999.90;999.90;;;8.30;99.90;;;;;;5053171;28;20448;-65
2022/11/29 10:06:31;;;;;;;1999.90;999.90;;;8.30;99.90;;;;;;5053524;28;20479;-65
2022/11/29 10:09:03;;;;;;;1999.90;999.90;;;8.40;99.90;;;;;;5053096;28;20444;-65
2022/11/29 10:11:36;;;;;;;1999.90;999.90;;;8.30;99.90;;;;;;5053398;28;20468;-65
2022/11/29 10:14:10;;;;;;;1999.90;999.90;;;8.40;99.90;;;;;;5053201;28;20972;-65
2022/11/29 10:16:44;;;;;;;1999.90;999.90;;;8.40;99.90;;;;;;5045347;28;20800;-65
2022/11/29 10:19:19;;;;;;;1999.90;999.90;;;8.40;99.90;;;;;;5045012;28;20444;-65
2022/11/29 10:21:56;;;;;;;1999.90;999.90;;;8.40;99.90;;;;;;5052865;28;21023;-65
2022/11/29 10:24:24;;;;;;;1999.90;999.90;;;8.40;99.90;;;;;;5053107;28;20454;-65
2022/11/29 10:26:51;;;;;;;1999.90;999.90;;;8.40;99.90;;;;;;5053050;28;20487;-64
2022/11/29 10:29:18;;;;;;;1999.90;999.90;;;8.40;99.90;;;;;;5045079;28;20451;-65
2022/11/29 10:31:48;;;;;;;1999.90;999.90;;;8.40;99.90;;;;;;5052611;28;20460;-65
2022/11/29 10:34:17;;;;;;;1999.90;999.90;;;8.50;99.90;;;;;;5053284;28;20553;-65
2022/11/29 10:36:46;;;;;;;1999.90;999.90;;;8.50;99.90;;;;;;5053040;28;20486;-65
2022/11/29 10:39:19;;;;;;;1999.90;999.90;;;8.50;99.90;;;;;;5052676;28;20448;-65
2022/11/29 10:41:46;;;;;;;1999.90;999.90;;;8.40;99.90;;;;;;5052575;28;20866;-65
2022/11/29 10:44:15;;;;;;;1999.90;999.90;;;8.50;99.90;;;;;;5053045;28;20447;-65
2022/11/29 10:46:42;;;;;;;1999.90;999.90;;;8.40;99.90;;;;;;5052360;28;20483;-65
2022/11/29 10:49:15;;;;;;;1999.90;999.90;;;8.30;99.90;;;;;;5052187;28;20448;-65
2022/11/29 10:51:43;;;;;;;1999.90;999.90;;;8.30;99.90;;;;;;5047562;28;20479;-65
2022/11/29 10:54:29;;;;;;;1999.90;999.90;;;8.30;99.90;;;;;;5051852;28;20452;-65
2022/11/29 10:56:57;;;;;;;1999.90;999.90;;;8.30;99.90;;;;;;5052378;28;20450;-65
2022/11/29 10:59:26;;;;;;;1999.90;999.90;;;8.30;99.90;;;;;;5051867;28;20551;-65
2022/11/29 11:01:53;;;;;;;1999.90;999.90;;;8.30;99.90;;;;;;5051875;28;20452;-65
2022/11/29 11:04:28;;;;;;;1999.90;999.90;;;8.30;99.90;;;;;;5052189;28;20437;-65
2022/11/29 11:06:56;;;;;;;1999.90;999.90;;;8.30;99.90;;;;;;5051464;28;20494;-65
2022/11/29 11:09:30;;;;;;;1999.90;999.90;;;8.40;99.90;;;;;;5051115;28;20475;-65
2022/11/29 11:11:58;;;;;;;1999.90;999.90;;;8.50;99.90;;;;;;5051834;28;20942;-65
2022/11/29 11:14:27;;;;;;;1999.90;999.90;;;8.50;99.90;;;;;;5051697;28;20941;-65
2022/11/29 11:16:55;;;;;;;1999.90;999.90;;;8.60;99.90;;;;;;5051867;28;20455;-65
2022/11/29 11:19:28;;;;;;;1999.90;999.90;;;8.50;99.90;;;;;;5051570;28;20950;-65
2022/11/29 11:21:56;;;;;;;1999.90;999.90;;;8.50;99.90;;;;;;5051811;28;20444;-65
2022/11/29 11:24:25;;;;;;;1999.90;999.90;;;8.60;99.90;;;;;;5051496;28;20451;-65
2022/11/29 11:26:52;;;;;;;1999.90;999.90;;;8.60;99.90;;;;;;5051581;28;20583;-64
2022/11/29 11:29:22;;;;;;;1999.90;999.90;;;8.60;99.90;;;;;;5051212;28;20448;-65
2022/11/29 11:31:54;;;;;;;1999.90;999.90;;;8.70;99.90;;;;;;5051654;28;20450;-65
2022/11/29 11:34:29;;;;;;;1999.90;999.90;;;8.70;99.90;;;;;;5051445;28;20444;-65
2022/11/29 11:37:21;;;;;;;1999.90;999.90;;;8.60;99.90;;;;;;5051403;28;20435;-65
2022/11/29 11:39:50;;;;;;;1999.90;999.90;;;8.60;99.90;;;;;;5050769;28;20460;-65
2022/11/29 11:42:39;;;;;;;1999.90;999.90;;;8.60;99.90;;;;;;5051331;28;20446;-64
2022/11/29 11:45:25;;;;;;;1999.90;999.90;;;8.70;99.90;;;;;;5051161;28;20528;-65
2022/11/29 11:47:54;;;;;;;1999.90;999.90;;;8.70;99.90;;;;;;5051280;28;20442;-66
2022/11/29 11:50:32;;;;;;;1999.90;999.90;;;8.60;99.90;;;;;;5050681;28;20499;-66
2022/11/29 11:53:03;;;;;;;1999.90;999.90;;;8.60;99.90;;;;;;5051121;28;20455;-66
2022/11/29 11:55:34;;;;;;;1999.90;999.90;;;8.50;99.90;;;;;;5049208;28;20452;-65
2022/11/29 11:58:04;;;;;;;1999.90;999.90;;;8.50;99.90;;;;;;5050345;28;20440;-65
2022/11/29 12:00:43;;;;;;;1999.90;999.90;;;8.40;99.90;;;;;;5050829;28;20475;-66
2022/11/29 12:03:33;;;;;;;1999.90;999.90;;;8.50;99.90;;;;;;5051058;28;20451;-65
2022/11/29 12:06:22;;;;;;;1999.90;999.90;;;8.50;99.90;;;;;;5050901;28;20817;-65
2022/11/29 12:08:49;;;;;;;1999.90;999.90;;;8.60;99.90;;;;;;5050522;28;20937;-66
2022/11/29 12:11:18;;;;;;;1999.90;999.90;;;8.60;99.90;;;;;;5050811;28;20554;-66
2022/11/29 12:13:50;;;;;;;1999.90;999.90;;;8.70;99.90;;;;;;5050873;28;20661;-66
2022/11/29 12:16:26;;;;;;;1999.90;999.90;;;8.60;99.90;;;;;;5050419;28;20448;-65
2022/11/29 12:18:59;;;;;;;1999.90;999.90;;;8.60;99.90;;;;;;5050247;28;20979;-66
2022/11/29 12:21:33;;;;;;;1999.90;999.90;;;8.60;99.90;;;;;;5047132;28;20543;-66
2022/11/29 12:24:05;;;;;;;1999.90;999.90;;;8.60;99.90;;;;;;5050502;28;20443;-66
2022/11/29 12:26:36;;;;;;;1999.90;999.90;;;8.50;99.90;;;;;;5049420;28;20479;-66
2022/11/29 12:29:04;;;;;;;1999.90;999.90;;;8.50;99.90;;;;;;5050311;28;20444;-66
2022/11/29 12:31:53;;;;;;;1999.90;999.90;;;8.40;99.90;;;;;;5050362;28;20460;-66
2022/11/29 12:34:35;;;;;;;1999.90;999.90;;;8.50;99.90;;;;;;5049956;28;20444;-66
2022/11/29 12:37:08;;;;;;;1999.90;999.90;;;8.40;99.90;;;;;;5050347;28;20470;-66
2022/11/29 12:39:50;;;;;;;1999.90;999.90;;;8.40;99.90;;;;;;5049628;28;20462;-65
2022/11/29 12:42:31;;;;;;;1999.90;999.90;;;8.40;99.90;;;;;;5050168;28;20526;-65
2022/11/29 12:45:03;;;;;;;1999.90;999.90;;;8.40;99.90;;;;;;5050130;28;20887;-66
2022/11/29 12:47:42;;;;;;;1999.90;999.90;;;8.50;99.90;;;;;;5050392;28;20479;-66
2022/11/29 12:50:25;;;;;;;1999.90;999.90;;;8.50;99.90;;;;;;5049654;28;20996;-66